sensor_id;sensor_type;location;lat;lon;timestamp;pressure;altitude;pressure_sealevel;temperature;humidity
41062;BME280;26812;42.662;23.352;2022-09-03T00:02:51;94881.44;;;18.88;72.94
41062;BME280;26812;42.662;23.352;2022-09-03T00:05:22;94890.88;;;18.95;72.78
41062;BME280;26812;42.662;23.352;2022-09-03T00:11:21;94880.22;;;18.86;73.00
41062;BME280;26812;42.662;23.352;2022-09-03T00:13:58;94885.31;;;18.87;72.76
41062;BME280;26812;42.662;23.352;2022-09-03T00:16:33;94893.56;;;18.91;72.28
41062;BME280;26812;42.662;23.352;2022-09-03T00:19:03;94880.28;;;18.89;72.38
41062;BME280;26812;42.662;23.352;2022-09-03T00:21:45;94884.94;;;18.89;72.16
41062;BME280;26812;42.662;23.352;2022-09-03T00:24:13;94875.66;;;18.93;72.14
41062;BME280;26812;42.662;23.352;2022-09-03T00:26:45;94883.22;;;19.04;71.71
41062;BME280;26812;42.662;23.352;2022-09-03T00:29:16;94885.53;;;19.02;71.65
41062;BME280;26812;42.662;23.352;2022-09-03T00:31:47;94878.56;;;19.08;71.71
41062;BME280;26812;42.662;23.352;2022-09-03T00:34:23;94884.03;;;19.08;71.73
41062;BME280;26812;42.662;23.352;2022-09-03T00:36:52;94876.22;;;19.06;70.64
41062;BME280;26812;42.662;23.352;2022-09-03T00:39:19;94874.00;;;19.19;70.65
41062;BME280;26812;42.662;23.352;2022-09-03T00:47:40;94888.69;;;19.37;68.86
41062;BME280;26812;42.662;23.352;2022-09-03T00:53:15;94886.75;;;19.41;68.72
41062;BME280;26812;42.662;23.352;2022-09-03T01:01:12;94889.94;;;19.13;69.58
41062;BME280;26812;42.662;23.352;2022-09-03T01:04:13;94886.94;;;18.92;70.47
41062;BME280;26812;42.662;23.352;2022-09-03T01:09:41;94890.63;;;19.03;70.80
41062;BME280;26812;42.662;23.352;2022-09-03T01:15:16;94883.25;;;18.77;71.16
41062;BME280;26812;42.662;23.352;2022-09-03T01:18:12;94884.97;;;18.63;71.56
41062;BME280;26812;42.662;23.352;2022-09-03T01:29:00;94894.75;;;18.93;70.43
41062;BME280;26812;42.662;23.352;2022-09-03T01:31:37;94897.28;;;19.06;69.62
41062;BME280;26812;42.662;23.352;2022-09-03T01:48:18;94911.63;;;18.99;69.26
41062;BME280;26812;42.662;23.352;2022-09-03T01:50:56;94904.00;;;18.85;69.73
41062;BME280;26812;42.662;23.352;2022-09-03T01:56:10;94901.97;;;18.79;70.28
41062;BME280;26812;42.662;23.352;2022-09-03T02:01:30;94901.47;;;18.70;70.10
41062;BME280;26812;42.662;23.352;2022-09-03T02:03:57;94890.06;;;18.64;70.29
41062;BME280;26812;42.662;23.352;2022-09-03T02:06:25;94889.19;;;18.60;70.43
41062;BME280;26812;42.662;23.352;2022-09-03T02:08:52;94882.25;;;18.63;70.56
41062;BME280;26812;42.662;23.352;2022-09-03T02:11:17;94859.31;;;18.41;71.02
41062;BME280;26812;42.662;23.352;2022-09-03T02:13:46;94898.84;;;18.77;70.70
41062;BME280;26812;42.662;23.352;2022-09-03T02:16:16;94909.84;;;18.84;70.14
41062;BME280;26812;42.662;23.352;2022-09-03T02:18:53;94918.06;;;18.87;69.98
41062;BME280;26812;42.662;23.352;2022-09-03T02:21:21;94911.84;;;18.87;69.81
41062;BME280;26812;42.662;23.352;2022-09-03T02:23:47;94917.72;;;18.89;69.62
41062;BME280;26812;42.662;23.352;2022-09-03T02:26:16;94906.19;;;18.73;70.29
41062;BME280;26812;42.662;23.352;2022-09-03T02:28:43;94893.94;;;18.63;70.10
41062;BME280;26812;42.662;23.352;2022-09-03T02:31:09;94918.78;;;18.81;69.69
41062;BME280;26812;42.662;23.352;2022-09-03T02:33:41;94919.22;;;18.86;69.03
41062;BME280;26812;42.662;23.352;2022-09-03T02:36:10;94918.13;;;18.91;68.67
41062;BME280;26812;42.662;23.352;2022-09-03T02:38:36;94912.56;;;18.84;68.83
41062;BME280;26812;42.662;23.352;2022-09-03T02:41:02;94909.00;;;18.80;68.99
41062;BME280;26812;42.662;23.352;2022-09-03T02:43:37;94915.97;;;19.04;68.11
41062;BME280;26812;42.662;23.352;2022-09-03T02:46:04;94919.53;;;19.08;67.98
41062;BME280;26812;42.662;23.352;2022-09-03T02:48:32;94926.00;;;18.96;68.37
41062;BME280;26812;42.662;23.352;2022-09-03T02:50:58;94931.91;;;18.98;68.31
41062;BME280;26812;42.662;23.352;2022-09-03T02:53:23;94931.69;;;19.14;67.65
41062;BME280;26812;42.662;23.352;2022-09-03T02:55:49;94919.28;;;18.90;68.02
41062;BME280;26812;42.662;23.352;2022-09-03T02:58:14;94922.63;;;19.06;67.64
41062;BME280;26812;42.662;23.352;2022-09-03T03:00:40;94928.13;;;19.10;67.41
41062;BME280;26812;42.662;23.352;2022-09-03T03:03:05;94916.63;;;18.97;67.63
41062;BME280;26812;42.662;23.352;2022-09-03T03:05:51;94923.69;;;18.98;67.91
41062;BME280;26812;42.662;23.352;2022-09-03T03:08:18;94917.75;;;18.92;67.99
41062;BME280;26812;42.662;23.352;2022-09-03T03:10:48;94927.78;;;18.85;68.52
41062;BME280;26812;42.662;23.352;2022-09-03T03:13:15;94929.88;;;18.95;68.15
41062;BME280;26812;42.662;23.352;2022-09-03T03:15:41;94914.97;;;18.89;68.08
41062;BME280;26812;42.662;23.352;2022-09-03T03:18:06;94914.09;;;18.81;68.70
41062;BME280;26812;42.662;23.352;2022-09-03T03:20:32;94910.22;;;18.82;68.63
41062;BME280;26812;42.662;23.352;2022-09-03T03:23:00;94916.88;;;18.85;69.02
41062;BME280;26812;42.662;23.352;2022-09-03T03:25:26;94920.75;;;18.84;68.95
41062;BME280;26812;42.662;23.352;2022-09-03T03:27:54;94910.97;;;18.79;68.84
41062;BME280;26812;42.662;23.352;2022-09-03T03:30:21;94915.72;;;18.86;68.66
41062;BME280;26812;42.662;23.352;2022-09-03T03:32:47;94925.13;;;18.88;68.10
41062;BME280;26812;42.662;23.352;2022-09-03T03:35:13;94922.25;;;18.78;68.51
41062;BME280;26812;42.662;23.352;2022-09-03T03:37:38;94927.28;;;18.76;68.92
41062;BME280;26812;42.662;23.352;2022-09-03T03:40:04;94918.63;;;18.70;68.72
41062;BME280;26812;42.662;23.352;2022-09-03T03:42:32;94915.31;;;18.61;69.07
41062;BME280;26812;42.662;23.352;2022-09-03T03:44:58;94922.38;;;18.62;69.06
41062;BME280;26812;42.662;23.352;2022-09-03T03:47:24;94923.50;;;18.61;69.39
41062;BME280;26812;42.662;23.352;2022-09-03T03:49:50;94914.44;;;18.53;69.33
41062;BME280;26812;42.662;23.352;2022-09-03T03:52:15;94924.16;;;18.51;69.60
41062;BME280;26812;42.662;23.352;2022-09-03T03:54:40;94915.03;;;18.40;69.46
41062;BME280;26812;42.662;23.352;2022-09-03T03:57:06;94928.09;;;18.53;69.62
41062;BME280;26812;42.662;23.352;2022-09-03T03:59:31;94917.84;;;18.47;69.61
41062;BME280;26812;42.662;23.352;2022-09-03T04:01:56;94933.13;;;18.51;69.28
41062;BME280;26812;42.662;23.352;2022-09-03T04:04:22;94933.59;;;18.57;69.47
41062;BME280;26812;42.662;23.352;2022-09-03T04:06:47;94923.03;;;18.55;69.58
41062;BME280;26812;42.662;23.352;2022-09-03T04:09:13;94922.44;;;18.66;69.06
41062;BME280;26812;42.662;23.352;2022-09-03T04:11:38;94918.84;;;18.61;68.44
41062;BME280;26812;42.662;23.352;2022-09-03T04:14:04;94924.13;;;18.74;68.75
41062;BME280;26812;42.662;23.352;2022-09-03T04:16:29;94925.72;;;18.75;68.56
41062;BME280;26812;42.662;23.352;2022-09-03T04:18:57;94926.53;;;18.79;68.16
41062;BME280;26812;42.662;23.352;2022-09-03T04:21:25;94930.09;;;18.83;68.28
41062;BME280;26812;42.662;23.352;2022-09-03T04:23:57;94925.81;;;18.82;68.70
41062;BME280;26812;42.662;23.352;2022-09-03T04:26:25;94940.34;;;18.89;68.18
41062;BME280;26812;42.662;23.352;2022-09-03T04:28:51;94926.63;;;18.86;68.04
41062;BME280;26812;42.662;23.352;2022-09-03T04:31:18;94938.25;;;18.79;68.08
41062;BME280;26812;42.662;23.352;2022-09-03T04:33:44;94938.09;;;18.69;68.83
41062;BME280;26812;42.662;23.352;2022-09-03T04:38:40;94951.28;;;18.67;68.91
41062;BME280;26812;42.662;23.352;2022-09-03T04:41:07;94956.69;;;18.63;69.43
41062;BME280;26812;42.662;23.352;2022-09-03T04:43:33;94954.03;;;18.67;69.24
41062;BME280;26812;42.662;23.352;2022-09-03T04:46:00;94964.22;;;18.70;68.84
41062;BME280;26812;42.662;23.352;2022-09-03T04:48:27;94959.16;;;18.68;69.11
41062;BME280;26812;42.662;23.352;2022-09-03T04:50:52;94968.63;;;18.78;68.81
41062;BME280;26812;42.662;23.352;2022-09-03T04:53:19;94968.28;;;18.79;68.66
41062;BME280;26812;42.662;23.352;2022-09-03T04:55:44;94965.59;;;18.60;69.16
41062;BME280;26812;42.662;23.352;2022-09-03T04:58:10;94980.25;;;18.71;69.01
41062;BME280;26812;42.662;23.352;2022-09-03T05:00:42;94981.97;;;18.60;69.53
41062;BME280;26812;42.662;23.352;2022-09-03T05:03:07;94977.25;;;18.57;69.62
41062;BME280;26812;42.662;23.352;2022-09-03T05:05:33;94980.25;;;18.71;69.20
41062;BME280;26812;42.662;23.352;2022-09-03T05:07:59;94974.00;;;18.71;69.39
41062;BME280;26812;42.662;23.352;2022-09-03T05:10:29;94988.63;;;18.85;68.69
41062;BME280;26812;42.662;23.352;2022-09-03T05:13:03;94986.84;;;18.97;68.07
41062;BME280;26812;42.662;23.352;2022-09-03T05:15:31;94988.34;;;18.94;68.14
41062;BME280;26812;42.662;23.352;2022-09-03T05:18:01;94988.47;;;19.01;68.04
41062;BME280;26812;42.662;23.352;2022-09-03T05:20:28;94986.63;;;19.09;67.57
41062;BME280;26812;42.662;23.352;2022-09-03T05:22:55;94952.41;;;18.88;67.13
41062;BME280;26812;42.662;23.352;2022-09-03T05:25:21;94981.97;;;19.09;67.13
41062;BME280;26812;42.662;23.352;2022-09-03T05:27:47;94983.94;;;19.12;67.31
41062;BME280;26812;42.662;23.352;2022-09-03T05:30:12;94979.91;;;19.03;67.51
41062;BME280;26812;42.662;23.352;2022-09-03T05:32:38;94996.41;;;19.10;67.95
41062;BME280;26812;42.662;23.352;2022-09-03T05:35:05;94981.38;;;18.97;67.59
41062;BME280;26812;42.662;23.352;2022-09-03T05:37:30;94994.81;;;19.09;67.74
41062;BME280;26812;42.662;23.352;2022-09-03T05:39:56;94989.81;;;19.14;67.71
41062;BME280;26812;42.662;23.352;2022-09-03T05:42:21;94996.91;;;19.19;67.46
41062;BME280;26812;42.662;23.352;2022-09-03T05:44:47;94989.47;;;19.16;67.15
41062;BME280;26812;42.662;23.352;2022-09-03T05:47:14;94988.34;;;19.20;66.43
41062;BME280;26812;42.662;23.352;2022-09-03T05:49:40;94996.59;;;19.24;66.64
41062;BME280;26812;42.662;23.352;2022-09-03T05:52:05;94993.47;;;19.26;66.41
41062;BME280;26812;42.662;23.352;2022-09-03T05:54:30;95002.09;;;19.28;66.53
41062;BME280;26812;42.662;23.352;2022-09-03T05:56:56;94998.53;;;19.23;66.49
41062;BME280;26812;42.662;23.352;2022-09-03T05:59:21;94974.94;;;19.08;66.71
41062;BME280;26812;42.662;23.352;2022-09-03T06:01:47;95010.97;;;19.21;66.70
41062;BME280;26812;42.662;23.352;2022-09-03T06:04:14;95003.69;;;19.29;66.19
41062;BME280;26812;42.662;23.352;2022-09-03T06:06:42;95000.38;;;19.16;66.36
41062;BME280;26812;42.662;23.352;2022-09-03T06:09:10;95010.13;;;19.43;65.48
41062;BME280;26812;42.662;23.352;2022-09-03T06:11:38;95015.66;;;19.50;65.48
41062;BME280;26812;42.662;23.352;2022-09-03T06:14:06;95013.34;;;19.52;64.29
41062;BME280;26812;42.662;23.352;2022-09-03T06:16:35;95011.78;;;19.51;64.68
41062;BME280;26812;42.662;23.352;2022-09-03T06:19:02;95009.78;;;19.48;64.90
41062;BME280;26812;42.662;23.352;2022-09-03T06:21:28;95010.44;;;19.65;65.01
41062;BME280;26812;42.662;23.352;2022-09-03T06:23:55;95011.25;;;19.69;65.04
41062;BME280;26812;42.662;23.352;2022-09-03T06:26:22;95020.47;;;19.57;65.18
41062;BME280;26812;42.662;23.352;2022-09-03T06:28:47;95019.00;;;19.63;64.56
41062;BME280;26812;42.662;23.352;2022-09-03T06:31:18;95011.06;;;19.54;64.78
41062;BME280;26812;42.662;23.352;2022-09-03T06:33:44;95022.91;;;19.62;64.56
41062;BME280;26812;42.662;23.352;2022-09-03T06:36:13;95026.97;;;19.79;64.01
41062;BME280;26812;42.662;23.352;2022-09-03T06:38:39;95026.28;;;19.85;63.44
41062;BME280;26812;42.662;23.352;2022-09-03T06:41:11;95023.91;;;19.84;63.51
41062;BME280;26812;42.662;23.352;2022-09-03T06:43:39;95026.81;;;19.98;63.39
41062;BME280;26812;42.662;23.352;2022-09-03T06:46:10;95025.84;;;20.17;63.64
41062;BME280;26812;42.662;23.352;2022-09-03T06:48:38;95027.69;;;20.06;63.21
41062;BME280;26812;42.662;23.352;2022-09-03T06:51:05;95032.78;;;20.07;62.98
41062;BME280;26812;42.662;23.352;2022-09-03T06:53:33;95039.19;;;19.89;63.68
41062;BME280;26812;42.662;23.352;2022-09-03T06:56:01;95038.34;;;19.81;63.92
41062;BME280;26812;42.662;23.352;2022-09-03T06:58:34;95031.34;;;19.83;64.17
41062;BME280;26812;42.662;23.352;2022-09-03T07:01:08;95015.81;;;19.91;64.33
41062;BME280;26812;42.662;23.352;2022-09-03T07:03:42;95033.53;;;20.04;63.62
41062;BME280;26812;42.662;23.352;2022-09-03T07:06:10;95030.75;;;20.01;63.56
41062;BME280;26812;42.662;23.352;2022-09-03T07:08:36;95031.97;;;20.03;63.38
41062;BME280;26812;42.662;23.352;2022-09-03T07:11:07;95039.84;;;20.12;63.48
41062;BME280;26812;42.662;23.352;2022-09-03T07:13:42;95044.75;;;20.29;63.47
41062;BME280;26812;42.662;23.352;2022-09-03T07:16:11;95035.41;;;20.34;62.81
41062;BME280;26812;42.662;23.352;2022-09-03T07:18:37;95027.41;;;20.18;62.86
41062;BME280;26812;42.662;23.352;2022-09-03T07:21:06;95051.75;;;20.27;62.85
41062;BME280;26812;42.662;23.352;2022-09-03T07:23:32;95038.47;;;20.29;63.10
41062;BME280;26812;42.662;23.352;2022-09-03T07:26:00;95031.22;;;20.43;62.36
41062;BME280;26812;42.662;23.352;2022-09-03T07:28:27;95049.34;;;20.55;61.84
41062;BME280;26812;42.662;23.352;2022-09-03T07:30:54;95057.34;;;20.78;61.42
41062;BME280;26812;42.662;23.352;2022-09-03T07:33:19;95055.22;;;20.57;61.91
41062;BME280;26812;42.662;23.352;2022-09-03T07:35:45;95063.88;;;20.63;61.70
41062;BME280;26812;42.662;23.352;2022-09-03T07:38:15;95066.63;;;20.66;61.59
41062;BME280;26812;42.662;23.352;2022-09-03T07:40:41;95064.50;;;20.90;61.16
41062;BME280;26812;42.662;23.352;2022-09-03T07:43:06;95054.31;;;20.87;60.82
41062;BME280;26812;42.662;23.352;2022-09-03T07:45:31;95072.03;;;21.07;59.90
41062;BME280;26812;42.662;23.352;2022-09-03T07:48:00;95060.72;;;21.12;59.80
41062;BME280;26812;42.662;23.352;2022-09-03T07:50:26;95062.97;;;21.47;59.43
41062;BME280;26812;42.662;23.352;2022-09-03T07:52:57;95062.38;;;21.82;58.32
41062;BME280;26812;42.662;23.352;2022-09-03T07:55:23;95062.69;;;21.70;57.67
41062;BME280;26812;42.662;23.352;2022-09-03T07:57:48;95060.03;;;21.19;58.83
41062;BME280;26812;42.662;23.352;2022-09-03T08:00:14;95070.22;;;21.22;59.31
41062;BME280;26812;42.662;23.352;2022-09-03T08:02:41;95074.97;;;21.28;58.87
41062;BME280;26812;42.662;23.352;2022-09-03T08:05:06;95073.69;;;21.15;58.84
41062;BME280;26812;42.662;23.352;2022-09-03T08:07:32;95064.50;;;20.90;59.84
41062;BME280;26812;42.662;23.352;2022-09-03T08:09:57;95075.66;;;21.18;59.75
41062;BME280;26812;42.662;23.352;2022-09-03T08:12:23;95072.22;;;21.25;59.52
41062;BME280;26812;42.662;23.352;2022-09-03T08:14:48;95087.38;;;21.15;59.91
41062;BME280;26812;42.662;23.352;2022-09-03T08:17:14;95054.47;;;21.12;59.89
41062;BME280;26812;42.662;23.352;2022-09-03T08:19:39;95073.00;;;21.25;59.24
41062;BME280;26812;42.662;23.352;2022-09-03T08:22:06;95066.00;;;21.35;58.15
41062;BME280;26812;42.662;23.352;2022-09-03T08:24:32;95073.03;;;21.29;59.20
41062;BME280;26812;42.662;23.352;2022-09-03T08:26:58;95072.00;;;21.51;59.14
41062;BME280;26812;42.662;23.352;2022-09-03T08:30:03;95067.34;;;21.59;58.93
41062;BME280;26812;42.662;23.352;2022-09-03T08:32:39;95074.00;;;21.58;58.06
41062;BME280;26812;42.662;23.352;2022-09-03T08:35:06;95068.56;;;21.72;57.85
41062;BME280;26812;42.662;23.352;2022-09-03T08:37:33;95073.34;;;21.82;57.23
41062;BME280;26812;42.662;23.352;2022-09-03T08:39:58;95065.19;;;22.00;56.90
41062;BME280;26812;42.662;23.352;2022-09-03T08:42:44;95075.84;;;22.09;57.04
41062;BME280;26812;42.662;23.352;2022-09-03T08:45:20;95057.06;;;22.18;56.44
41062;BME280;26812;42.662;23.352;2022-09-03T08:48:06;95055.09;;;22.18;55.72
41062;BME280;26812;42.662;23.352;2022-09-03T08:50:43;95063.28;;;22.08;56.98
41062;BME280;26812;42.662;23.352;2022-09-03T08:55:46;95062.22;;;22.51;56.11
41062;BME280;26812;42.662;23.352;2022-09-03T08:58:19;95063.84;;;22.67;54.95
41062;BME280;26812;42.662;23.352;2022-09-03T09:14:00;95076.44;;;22.82;54.63
41062;BME280;26812;42.662;23.352;2022-09-03T09:22:02;95073.69;;;22.82;55.97
41062;BME280;26812;42.662;23.352;2022-09-03T09:24:39;95072.53;;;23.01;54.75
41062;BME280;26812;42.662;23.352;2022-09-03T09:27:05;95075.66;;;23.31;54.29
41062;BME280;26812;42.662;23.352;2022-09-03T09:29:34;95060.31;;;23.48;52.64
41062;BME280;26812;42.662;23.352;2022-09-03T09:32:00;95065.44;;;23.28;52.62
41062;BME280;26812;42.662;23.352;2022-09-03T09:34:26;95064.66;;;23.10;53.21
41062;BME280;26812;42.662;23.352;2022-09-03T09:36:54;95075.66;;;23.28;53.42
41062;BME280;26812;42.662;23.352;2022-09-03T09:39:21;95068.13;;;23.53;52.96
41062;BME280;26812;42.662;23.352;2022-09-03T09:42:16;95071.28;;;23.51;51.77
41062;BME280;26812;42.662;23.352;2022-09-03T09:44:45;95064.25;;;23.61;52.28
41062;BME280;26812;42.662;23.352;2022-09-03T09:47:15;95072.88;;;23.49;52.36
41062;BME280;26812;42.662;23.352;2022-09-03T09:52:12;95084.69;;;23.32;53.12
41062;BME280;26812;42.662;23.352;2022-09-03T09:54:39;95042.31;;;23.01;53.31
41062;BME280;26812;42.662;23.352;2022-09-03T09:57:12;95079.97;;;23.32;53.42
41062;BME280;26812;42.662;23.352;2022-09-03T09:59:38;95079.16;;;23.49;53.13
41062;BME280;26812;42.662;23.352;2022-09-03T10:04:37;95090.16;;;23.67;51.53
41062;BME280;26812;42.662;23.352;2022-09-03T10:07:28;95082.69;;;23.57;52.41
41062;BME280;26812;42.662;23.352;2022-09-03T10:10:19;95076.00;;;23.47;53.27
41062;BME280;26812;42.662;23.352;2022-09-03T10:13:09;95068.09;;;23.92;51.38
41062;BME280;26812;42.662;23.352;2022-09-03T10:18:29;95074.63;;;24.27;50.47
41062;BME280;26812;42.662;23.352;2022-09-03T10:21:05;95064.75;;;24.36;50.39
41062;BME280;26812;42.662;23.352;2022-09-03T10:23:57;95072.63;;;24.34;50.28
41062;BME280;26812;42.662;23.352;2022-09-03T10:26:30;95065.53;;;24.37;49.96
41062;BME280;26812;42.662;23.352;2022-09-03T10:29:02;95065.47;;;24.48;49.93
41062;BME280;26812;42.662;23.352;2022-09-03T10:39:41;95073.06;;;24.26;50.52
41062;BME280;26812;42.662;23.352;2022-09-03T10:42:34;95065.94;;;24.35;50.97
41062;BME280;26812;42.662;23.352;2022-09-03T10:45:17;95062.06;;;24.29;50.48
41062;BME280;26812;42.662;23.352;2022-09-03T10:50:52;95079.19;;;24.58;49.42
41062;BME280;26812;42.662;23.352;2022-09-03T10:53:34;95064.91;;;24.74;49.28
41062;BME280;26812;42.662;23.352;2022-09-03T11:01:37;95069.09;;;24.96;49.52
41062;BME280;26812;42.662;23.352;2022-09-03T11:04:48;95067.09;;;25.04;47.85
41062;BME280;26812;42.662;23.352;2022-09-03T11:07:13;95067.41;;;25.17;47.66
41062;BME280;26812;42.662;23.352;2022-09-03T11:12:14;95057.06;;;25.28;46.99
41062;BME280;26812;42.662;23.352;2022-09-03T11:14:52;95053.09;;;25.29;47.41
41062;BME280;26812;42.662;23.352;2022-09-03T11:17:28;95070.75;;;24.87;48.80
41062;BME280;26812;42.662;23.352;2022-09-03T11:22:59;95072.78;;;25.31;48.20
41062;BME280;26812;42.662;23.352;2022-09-03T11:25:32;95068.34;;;25.44;47.12
41062;BME280;26812;42.662;23.352;2022-09-03T11:33:09;95059.88;;;25.62;45.90
41062;BME280;26812;42.662;23.352;2022-09-03T11:38:03;95056.75;;;25.97;45.26
41062;BME280;26812;42.662;23.352;2022-09-03T11:40:35;95061.28;;;26.15;44.91
41062;BME280;26812;42.662;23.352;2022-09-03T11:48:44;95062.03;;;26.19;44.26
41062;BME280;26812;42.662;23.352;2022-09-03T11:56:48;95059.72;;;26.48;43.85
41062;BME280;26812;42.662;23.352;2022-09-03T11:59:23;95066.22;;;26.61;43.80
41062;BME280;26812;42.662;23.352;2022-09-03T12:01:57;95068.06;;;26.71;43.56
41062;BME280;26812;42.662;23.352;2022-09-03T12:10:48;95044.75;;;26.72;43.15
41062;BME280;26812;42.662;23.352;2022-09-03T12:18:17;95038.34;;;26.79;42.19
41062;BME280;26812;42.662;23.352;2022-09-03T12:20:59;95046.00;;;26.95;41.89
41062;BME280;26812;42.662;23.352;2022-09-03T12:23:28;95034.31;;;26.83;42.50
41062;BME280;26812;42.662;23.352;2022-09-03T12:25:54;95026.38;;;26.85;41.46
41062;BME280;26812;42.662;23.352;2022-09-03T12:28:22;95020.97;;;26.78;41.89
41062;BME280;26812;42.662;23.352;2022-09-03T12:30:50;95032.91;;;26.72;42.59
41062;BME280;26812;42.662;23.352;2022-09-03T12:33:18;95030.88;;;26.76;42.22
41062;BME280;26812;42.662;23.352;2022-09-03T12:35:59;95040.47;;;26.95;41.74
41062;BME280;26812;42.662;23.352;2022-09-03T12:38:28;95042.31;;;27.05;42.12
41062;BME280;26812;42.662;23.352;2022-09-03T12:40:56;95033.41;;;27.17;42.05
41062;BME280;26812;42.662;23.352;2022-09-03T12:43:27;95017.53;;;27.21;41.94
41062;BME280;26812;42.662;23.352;2022-09-03T12:45:53;95032.56;;;27.20;41.85
41062;BME280;26812;42.662;23.352;2022-09-03T12:48:20;95034.13;;;27.21;42.37
41062;BME280;26812;42.662;23.352;2022-09-03T12:50:47;95025.41;;;27.22;42.18
41062;BME280;26812;42.662;23.352;2022-09-03T12:53:23;95005.63;;;27.24;41.74
41062;BME280;26812;42.662;23.352;2022-09-03T12:55:52;95020.72;;;27.43;41.03
41062;BME280;26812;42.662;23.352;2022-09-03T13:01:10;95010.69;;;27.29;40.77
41062;BME280;26812;42.662;23.352;2022-09-03T13:03:49;95020.78;;;27.16;40.97
41062;BME280;26812;42.662;23.352;2022-09-03T13:06:20;95028.13;;;27.03;42.25
41062;BME280;26812;42.662;23.352;2022-09-03T13:08:54;95011.22;;;26.97;41.92
41062;BME280;26812;42.662;23.352;2022-09-03T13:11:22;94999.03;;;26.91;41.21
41062;BME280;26812;42.662;23.352;2022-09-03T13:14:03;95011.00;;;26.84;41.47
41062;BME280;26812;42.662;23.352;2022-09-03T13:19:21;95002.06;;;26.50;42.87
41062;BME280;26812;42.662;23.352;2022-09-03T13:22:05;94997.63;;;26.25;42.79
41062;BME280;26812;42.662;23.352;2022-09-03T13:30:00;94981.38;;;26.31;43.29
41062;BME280;26812;42.662;23.352;2022-09-03T13:37:48;95002.31;;;26.28;43.52
41062;BME280;26812;42.662;23.352;2022-09-03T13:43:03;94990.34;;;26.12;43.11
41062;BME280;26812;42.662;23.352;2022-09-03T13:45:40;94991.66;;;26.00;43.39
41062;BME280;26812;42.662;23.352;2022-09-03T13:48:20;94992.91;;;25.95;43.05
41062;BME280;26812;42.662;23.352;2022-09-03T13:51:29;94999.19;;;25.96;43.11
41062;BME280;26812;42.662;23.352;2022-09-03T13:56:47;94988.03;;;25.76;42.99
41062;BME280;26812;42.662;23.352;2022-09-03T13:59:17;94987.09;;;25.86;43.33
41062;BME280;26812;42.662;23.352;2022-09-03T14:02:17;94990.19;;;25.92;43.17
41062;BME280;26812;42.662;23.352;2022-09-03T14:07:18;94984.03;;;25.81;43.46
41062;BME280;26812;42.662;23.352;2022-09-03T14:10:00;94995.03;;;25.84;43.81
41062;BME280;26812;42.662;23.352;2022-09-03T14:18:49;94997.47;;;25.79;43.21
41062;BME280;26812;42.662;23.352;2022-09-03T14:21:21;94994.28;;;25.80;43.01
41062;BME280;26812;42.662;23.352;2022-09-03T14:26:30;95000.75;;;25.63;43.54
41062;BME280;26812;42.662;23.352;2022-09-03T14:29:06;94995.66;;;25.61;43.83
41062;BME280;26812;42.662;23.352;2022-09-03T14:39:54;95000.38;;;25.23;44.78
41062;BME280;26812;42.662;23.352;2022-09-03T14:48:28;94982.06;;;25.02;45.02
41062;BME280;26812;42.662;23.352;2022-09-03T14:59:49;94996.28;;;24.94;45.80
41062;BME280;26812;42.662;23.352;2022-09-03T15:05:33;94998.34;;;24.86;45.91
41062;BME280;26812;42.662;23.352;2022-09-03T15:11:14;95008.91;;;24.91;45.84
41062;BME280;26812;42.662;23.352;2022-09-03T15:14:07;95002.16;;;24.99;47.39
41062;BME280;26812;42.662;23.352;2022-09-03T15:16:49;95000.16;;;25.03;48.01
41062;BME280;26812;42.662;23.352;2022-09-03T15:24:54;95007.19;;;25.12;47.19
41062;BME280;26812;42.662;23.352;2022-09-03T15:30:13;95018.03;;;24.85;48.22
41062;BME280;26812;42.662;23.352;2022-09-03T15:38:07;95003.25;;;24.61;50.71
41062;BME280;26812;42.662;23.352;2022-09-03T15:40:47;95011.09;;;24.62;51.47
41062;BME280;26812;42.662;23.352;2022-09-03T15:43:40;95023.34;;;24.58;51.39
41062;BME280;26812;42.662;23.352;2022-09-03T15:46:24;95021.81;;;24.46;52.40
41062;BME280;26812;42.662;23.352;2022-09-03T15:52:02;95036.06;;;24.34;52.56
41062;BME280;26812;42.662;23.352;2022-09-03T15:54:42;95030.59;;;24.30;52.25
41062;BME280;26812;42.662;23.352;2022-09-03T15:57:23;95034.16;;;24.16;52.12
41062;BME280;26812;42.662;23.352;2022-09-03T15:59:57;95034.63;;;24.01;53.49
41062;BME280;26812;42.662;23.352;2022-09-03T16:02:37;95031.56;;;23.88;53.47
41062;BME280;26812;42.662;23.352;2022-09-03T16:05:10;95024.44;;;23.98;53.91
41062;BME280;26812;42.662;23.352;2022-09-03T16:12:44;95039.47;;;23.68;54.79
41062;BME280;26812;42.662;23.352;2022-09-03T16:15:23;95044.97;;;23.65;54.79
41062;BME280;26812;42.662;23.352;2022-09-03T16:18:22;95041.06;;;23.62;54.75
41062;BME280;26812;42.662;23.352;2022-09-03T16:23:24;95056.78;;;23.62;55.17
41062;BME280;26812;42.662;23.352;2022-09-03T16:28:46;95047.78;;;23.33;55.71
41062;BME280;26812;42.662;23.352;2022-09-03T16:40:17;95085.09;;;23.27;56.81
41062;BME280;26812;42.662;23.352;2022-09-03T16:43:02;95077.22;;;23.11;56.77
41062;BME280;26812;42.662;23.352;2022-09-03T16:46:24;95064.66;;;23.06;56.85
41062;BME280;26812;42.662;23.352;2022-09-03T17:18:28;95104.97;;;22.45;58.10
41062;BME280;26812;42.662;23.352;2022-09-03T17:29:02;95110.34;;;22.17;58.67
41062;BME280;26812;42.662;23.352;2022-09-03T17:31:47;95119.78;;;22.19;58.74
41062;BME280;26812;42.662;23.352;2022-09-03T17:50:29;95161.28;;;22.11;58.81
41062;BME280;26812;42.662;23.352;2022-09-03T17:53:19;95146.28;;;21.97;58.61
41062;BME280;26812;42.662;23.352;2022-09-03T17:56:01;95153.31;;;21.91;58.37
41062;BME280;26812;42.662;23.352;2022-09-03T17:58:40;95132.06;;;21.74;58.38
41062;BME280;26812;42.662;23.352;2022-09-03T18:01:17;95174.84;;;21.86;58.60